sensor_id;sensor_type;location;lat;lon;timestamp;P1;durP1;ratioP1;P2;durP2;ratioP2
11082;SDS011;5595;50.186;8.468;2023-09-19T00:02:26;1.25;;;0.98;;
11082;SDS011;5595;50.186;8.468;2023-09-19T00:04:54;1.70;;;1.25;;
11082;SDS011;5595;50.186;8.468;2023-09-19T00:07:21;2.90;;;1.13;;
11082;SDS011;5595;50.186;8.468;2023-09-19T00:09:48;1.90;;;1.10;;
11082;SDS011;5595;50.186;8.468;2023-09-19T00:12:15;4.15;;;1.60;;
11082;SDS011;5595;50.186;8.468;2023-09-19T00:14:43;2.17;;;1.40;;
11082;SDS011;5595;50.186;8.468;2023-09-19T00:17:11;1.60;;;1.50;;
11082;SDS011;5595;50.186;8.468;2023-09-19T00:19:37;2.55;;;1.50;;
11082;SDS011;5595;50.186;8.468;2023-09-19T00:22:07;3.40;;;1.50;;
11082;SDS011;5595;50.186;8.468;2023-09-19T00:24:34;2.30;;;1.80;;
11082;SDS011;5595;50.186;8.468;2023-09-19T00:27:01;2.70;;;1.67;;
11082;SDS011;5595;50.186;8.468;2023-09-19T00:29:28;2.13;;;1.80;;
11082;SDS011;5595;50.186;8.468;2023-09-19T00:31:56;3.15;;;1.70;;
11082;SDS011;5595;50.186;8.468;2023-09-19T00:34:25;3.70;;;1.70;;
11082;SDS011;5595;50.186;8.468;2023-09-19T00:36:53;1.67;;;1.58;;
11082;SDS011;5595;50.186;8.468;2023-09-19T00:39:20;2.28;;;1.95;;
11082;SDS011;5595;50.186;8.468;2023-09-19T00:41:47;2.25;;;1.63;;
11082;SDS011;5595;50.186;8.468;2023-09-19T00:44:14;3.28;;;1.98;;
11082;SDS011;5595;50.186;8.468;2023-09-19T00:46:42;2.75;;;1.63;;
11082;SDS011;5595;50.186;8.468;2023-09-19T00:49:12;3.65;;;1.92;;
11082;SDS011;5595;50.186;8.468;2023-09-19T00:51:41;3.10;;;1.73;;
11082;SDS011;5595;50.186;8.468;2023-09-19T00:54:12;3.90;;;2.15;;
11082;SDS011;5595;50.186;8.468;2023-09-19T00:56:43;3.78;;;1.77;;
11082;SDS011;5595;50.186;8.468;2023-09-19T00:59:11;2.15;;;1.98;;
11082;SDS011;5595;50.186;8.468;2023-09-19T01:01:38;1.92;;;1.70;;
11082;SDS011;5595;50.186;8.468;2023-09-19T01:04:05;5.75;;;1.67;;
11082;SDS011;5595;50.186;8.468;2023-09-19T01:06:32;2.78;;;1.35;;
11082;SDS011;5595;50.186;8.468;2023-09-19T01:09:03;4.20;;;1.48;;
11082;SDS011;5595;50.186;8.468;2023-09-19T01:11:32;1.83;;;1.08;;
11082;SDS011;5595;50.186;8.468;2023-09-19T01:14:07;3.88;;;1.30;;
11082;SDS011;5595;50.186;8.468;2023-09-19T01:16:45;2.33;;;1.23;;
11082;SDS011;5595;50.186;8.468;2023-09-19T01:22:31;2.25;;;1.30;;
11082;SDS011;5595;50.186;8.468;2023-09-19T01:28:20;2.15;;;1.17;;
11082;SDS011;5595;50.186;8.468;2023-09-19T01:30:57;1.33;;;0.88;;
11082;SDS011;5595;50.186;8.468;2023-09-19T01:33:25;1.33;;;1.13;;
11082;SDS011;5595;50.186;8.468;2023-09-19T01:35:52;3.08;;;0.95;;
11082;SDS011;5595;50.186;8.468;2023-09-19T01:38:22;2.85;;;1.65;;
11082;SDS011;5595;50.186;8.468;2023-09-19T01:40:51;3.15;;;1.15;;
11082;SDS011;5595;50.186;8.468;2023-09-19T01:43:26;3.30;;;0.80;;
11082;SDS011;5595;50.186;8.468;2023-09-19T01:46:02;3.67;;;0.88;;
11082;SDS011;5595;50.186;8.468;2023-09-19T01:48:36;1.42;;;0.50;;
11082;SDS011;5595;50.186;8.468;2023-09-19T01:51:11;0.93;;;0.70;;
11082;SDS011;5595;50.186;8.468;2023-09-19T01:53:49;0.95;;;0.90;;
11082;SDS011;5595;50.186;8.468;2023-09-19T01:56:22;1.10;;;0.95;;
11082;SDS011;5595;50.186;8.468;2023-09-19T01:58:55;1.52;;;0.80;;
11082;SDS011;5595;50.186;8.468;2023-09-19T02:01:28;2.92;;;0.77;;
11082;SDS011;5595;50.186;8.468;2023-09-19T02:03:56;3.50;;;0.95;;
11082;SDS011;5595;50.186;8.468;2023-09-19T02:06:23;2.40;;;1.13;;
11082;SDS011;5595;50.186;8.468;2023-09-19T02:08:51;0.88;;;0.77;;
11082;SDS011;5595;50.186;8.468;2023-09-19T02:11:20;1.85;;;1.10;;
11082;SDS011;5595;50.186;8.468;2023-09-19T02:13:47;0.88;;;0.80;;
11082;SDS011;5595;50.186;8.468;2023-09-19T02:16:18;2.35;;;0.80;;
11082;SDS011;5595;50.186;8.468;2023-09-19T02:18:49;4.75;;;1.00;;
11082;SDS011;5595;50.186;8.468;2023-09-19T02:21:16;1.10;;;0.80;;
11082;SDS011;5595;50.186;8.468;2023-09-19T02:23:43;1.88;;;0.68;;
11082;SDS011;5595;50.186;8.468;2023-09-19T02:26:12;1.58;;;0.80;;
11082;SDS011;5595;50.186;8.468;2023-09-19T02:28:39;3.45;;;0.80;;
11082;SDS011;5595;50.186;8.468;2023-09-19T02:31:05;1.60;;;0.70;;
11082;SDS011;5595;50.186;8.468;2023-09-19T02:33:33;0.90;;;0.60;;
11082;SDS011;5595;50.186;8.468;2023-09-19T02:36:02;2.55;;;0.85;;
11082;SDS011;5595;50.186;8.468;2023-09-19T02:38:30;3.70;;;0.80;;
11082;SDS011;5595;50.186;8.468;2023-09-19T02:40:57;3.10;;;0.75;;
11082;SDS011;5595;50.186;8.468;2023-09-19T02:43:24;1.27;;;0.88;;
11082;SDS011;5595;50.186;8.468;2023-09-19T02:45:51;1.25;;;0.60;;
11082;SDS011;5595;50.186;8.468;2023-09-19T02:48:19;2.10;;;0.70;;
11082;SDS011;5595;50.186;8.468;2023-09-19T02:50:49;2.97;;;0.90;;
11082;SDS011;5595;50.186;8.468;2023-09-19T02:53:17;1.65;;;0.90;;
11082;SDS011;5595;50.186;8.468;2023-09-19T02:55:44;2.05;;;0.95;;
11082;SDS011;5595;50.186;8.468;2023-09-19T02:58:13;2.35;;;0.63;;
11082;SDS011;5595;50.186;8.468;2023-09-19T03:00:40;2.03;;;0.85;;
11082;SDS011;5595;50.186;8.468;2023-09-19T03:03:07;1.85;;;0.65;;
11082;SDS011;5595;50.186;8.468;2023-09-19T03:05:35;1.75;;;0.90;;
11082;SDS011;5595;50.186;8.468;2023-09-19T03:08:03;1.52;;;0.80;;
11082;SDS011;5595;50.186;8.468;2023-09-19T03:10:32;1.05;;;0.50;;
11082;SDS011;5595;50.186;8.468;2023-09-19T03:13:02;4.28;;;2.33;;
11082;SDS011;5595;50.186;8.468;2023-09-19T03:15:29;1.90;;;0.90;;
11082;SDS011;5595;50.186;8.468;2023-09-19T03:17:56;2.45;;;0.70;;
11082;SDS011;5595;50.186;8.468;2023-09-19T03:20:24;2.40;;;0.60;;
11082;SDS011;5595;50.186;8.468;2023-09-19T03:22:52;2.20;;;0.65;;
11082;SDS011;5595;50.186;8.468;2023-09-19T03:25:19;1.75;;;0.52;;
11082;SDS011;5595;50.186;8.468;2023-09-19T03:27:49;1.95;;;0.70;;
11082;SDS011;5595;50.186;8.468;2023-09-19T03:30:16;0.63;;;0.50;;
11082;SDS011;5595;50.186;8.468;2023-09-19T03:32:43;2.20;;;0.70;;
11082;SDS011;5595;50.186;8.468;2023-09-19T03:35:11;1.50;;;0.50;;
11082;SDS011;5595;50.186;8.468;2023-09-19T03:37:39;0.95;;;0.60;;
11082;SDS011;5595;50.186;8.468;2023-09-19T03:40:06;2.15;;;0.85;;
11082;SDS011;5595;50.186;8.468;2023-09-19T03:42:37;3.03;;;0.40;;
11082;SDS011;5595;50.186;8.468;2023-09-19T03:45:06;0.98;;;0.40;;
11082;SDS011;5595;50.186;8.468;2023-09-19T03:47:36;4.60;;;1.00;;
11082;SDS011;5595;50.186;8.468;2023-09-19T03:50:04;4.57;;;0.70;;
11082;SDS011;5595;50.186;8.468;2023-09-19T03:52:33;1.27;;;0.50;;
11082;SDS011;5595;50.186;8.468;2023-09-19T03:55:00;5.88;;;0.55;;
11082;SDS011;5595;50.186;8.468;2023-09-19T03:57:29;1.45;;;0.52;;
11082;SDS011;5595;50.186;8.468;2023-09-19T03:59:56;3.05;;;0.68;;
11082;SDS011;5595;50.186;8.468;2023-09-19T04:02:24;2.75;;;0.60;;
11082;SDS011;5595;50.186;8.468;2023-09-19T04:04:51;2.72;;;0.38;;
11082;SDS011;5595;50.186;8.468;2023-09-19T04:07:18;4.10;;;0.60;;
11082;SDS011;5595;50.186;8.468;2023-09-19T04:09:47;3.20;;;0.80;;
11082;SDS011;5595;50.186;8.468;2023-09-19T04:12:14;5.70;;;0.50;;
11082;SDS011;5595;50.186;8.468;2023-09-19T04:14:42;1.90;;;0.68;;
11082;SDS011;5595;50.186;8.468;2023-09-19T04:17:08;0.70;;;0.45;;
11082;SDS011;5595;50.186;8.468;2023-09-19T04:19:37;5.63;;;0.77;;
11082;SDS011;5595;50.186;8.468;2023-09-19T04:22:03;2.15;;;0.63;;
11082;SDS011;5595;50.186;8.468;2023-09-19T04:24:30;0.77;;;0.57;;
11082;SDS011;5595;50.186;8.468;2023-09-19T04:26:59;0.50;;;0.50;;
11082;SDS011;5595;50.186;8.468;2023-09-19T04:29:25;1.23;;;0.60;;
11082;SDS011;5595;50.186;8.468;2023-09-19T04:31:54;1.25;;;0.73;;
11082;SDS011;5595;50.186;8.468;2023-09-19T04:34:22;3.28;;;0.68;;
11082;SDS011;5595;50.186;8.468;2023-09-19T04:36:50;2.13;;;0.70;;
11082;SDS011;5595;50.186;8.468;2023-09-19T04:39:18;3.20;;;1.02;;
11082;SDS011;5595;50.186;8.468;2023-09-19T04:41:46;3.33;;;1.10;;
11082;SDS011;5595;50.186;8.468;2023-09-19T04:44:13;2.95;;;1.20;;
11082;SDS011;5595;50.186;8.468;2023-09-19T04:46:39;2.13;;;0.82;;
11082;SDS011;5595;50.186;8.468;2023-09-19T04:49:06;2.85;;;1.02;;
11082;SDS011;5595;50.186;8.468;2023-09-19T04:51:33;2.10;;;1.08;;
11082;SDS011;5595;50.186;8.468;2023-09-19T04:54:02;1.52;;;1.33;;
11082;SDS011;5595;50.186;8.468;2023-09-19T04:56:32;2.17;;;1.20;;
11082;SDS011;5595;50.186;8.468;2023-09-19T04:58:59;1.60;;;1.00;;
11082;SDS011;5595;50.186;8.468;2023-09-19T05:01:26;1.60;;;1.00;;
11082;SDS011;5595;50.186;8.468;2023-09-19T05:03:53;3.63;;;1.10;;
11082;SDS011;5595;50.186;8.468;2023-09-19T05:06:20;1.25;;;1.10;;
11082;SDS011;5595;50.186;8.468;2023-09-19T05:08:47;2.75;;;1.20;;
11082;SDS011;5595;50.186;8.468;2023-09-19T05:11:17;3.97;;;1.38;;
11082;SDS011;5595;50.186;8.468;2023-09-19T05:13:44;2.28;;;1.33;;
11082;SDS011;5595;50.186;8.468;2023-09-19T05:16:11;1.13;;;0.80;;
11082;SDS011;5595;50.186;8.468;2023-09-19T05:18:38;3.15;;;1.48;;
11082;SDS011;5595;50.186;8.468;2023-09-19T05:21:05;4.32;;;1.50;;
11082;SDS011;5595;50.186;8.468;2023-09-19T05:23:32;3.33;;;1.42;;
11082;SDS011;5595;50.186;8.468;2023-09-19T05:25:59;2.53;;;1.50;;
11082;SDS011;5595;50.186;8.468;2023-09-19T05:28:30;3.22;;;1.83;;
11082;SDS011;5595;50.186;8.468;2023-09-19T05:31:00;2.13;;;1.58;;
11082;SDS011;5595;50.186;8.468;2023-09-19T05:33:27;6.30;;;1.77;;
11082;SDS011;5595;50.186;8.468;2023-09-19T05:35:56;3.40;;;1.80;;
11082;SDS011;5595;50.186;8.468;2023-09-19T05:38:23;3.97;;;2.15;;
11082;SDS011;5595;50.186;8.468;2023-09-19T05:40:51;1.90;;;1.38;;
11082;SDS011;5595;50.186;8.468;2023-09-19T05:43:19;3.78;;;1.67;;
11082;SDS011;5595;50.186;8.468;2023-09-19T05:45:47;2.85;;;1.35;;
11082;SDS011;5595;50.186;8.468;2023-09-19T05:48:17;3.90;;;1.70;;
11082;SDS011;5595;50.186;8.468;2023-09-19T05:50:46;1.55;;;1.45;;
11082;SDS011;5595;50.186;8.468;2023-09-19T05:53:13;4.30;;;1.75;;
11082;SDS011;5595;50.186;8.468;2023-09-19T05:55:41;5.10;;;1.85;;
11082;SDS011;5595;50.186;8.468;2023-09-19T05:58:07;2.30;;;1.55;;
11082;SDS011;5595;50.186;8.468;2023-09-19T06:00:35;4.82;;;2.10;;
11082;SDS011;5595;50.186;8.468;2023-09-19T06:03:03;3.15;;;1.95;;
11082;SDS011;5595;50.186;8.468;2023-09-19T06:05:30;2.33;;;1.70;;
11082;SDS011;5595;50.186;8.468;2023-09-19T06:07:57;2.10;;;1.55;;
11082;SDS011;5595;50.186;8.468;2023-09-19T06:10:25;5.35;;;1.85;;
11082;SDS011;5595;50.186;8.468;2023-09-19T06:12:53;5.20;;;1.70;;
11082;SDS011;5595;50.186;8.468;2023-09-19T06:15:20;3.47;;;1.90;;
11082;SDS011;5595;50.186;8.468;2023-09-19T06:17:48;2.63;;;1.60;;
11082;SDS011;5595;50.186;8.468;2023-09-19T06:20:17;2.88;;;1.98;;
11082;SDS011;5595;50.186;8.468;2023-09-19T06:22:45;3.80;;;1.65;;
11082;SDS011;5595;50.186;8.468;2023-09-19T06:25:12;4.05;;;1.40;;
11082;SDS011;5595;50.186;8.468;2023-09-19T06:27:44;3.22;;;1.58;;
11082;SDS011;5595;50.186;8.468;2023-09-19T06:30:11;4.88;;;1.77;;
11082;SDS011;5595;50.186;8.468;2023-09-19T06:32:39;4.03;;;1.75;;
11082;SDS011;5595;50.186;8.468;2023-09-19T06:35:09;4.22;;;1.30;;
11082;SDS011;5595;50.186;8.468;2023-09-19T06:37:37;5.30;;;1.67;;
11082;SDS011;5595;50.186;8.468;2023-09-19T06:40:06;4.50;;;1.40;;
11082;SDS011;5595;50.186;8.468;2023-09-19T06:42:38;2.42;;;1.42;;
11082;SDS011;5595;50.186;8.468;2023-09-19T06:45:06;4.32;;;1.17;;
11082;SDS011;5595;50.186;8.468;2023-09-19T06:47:36;1.55;;;1.17;;
11082;SDS011;5595;50.186;8.468;2023-09-19T06:50:03;2.97;;;1.10;;
11082;SDS011;5595;50.186;8.468;2023-09-19T06:52:30;2.10;;;1.30;;
11082;SDS011;5595;50.186;8.468;2023-09-19T06:54:59;2.03;;;1.10;;
11082;SDS011;5595;50.186;8.468;2023-09-19T06:57:28;0.98;;;0.90;;
11082;SDS011;5595;50.186;8.468;2023-09-19T06:59:55;0.80;;;0.80;;
11082;SDS011;5595;50.186;8.468;2023-09-19T07:02:22;3.13;;;0.90;;
11082;SDS011;5595;50.186;8.468;2023-09-19T07:04:49;2.50;;;1.13;;
11082;SDS011;5595;50.186;8.468;2023-09-19T07:07:15;3.22;;;0.90;;
11082;SDS011;5595;50.186;8.468;2023-09-19T07:09:42;1.88;;;0.82;;
11082;SDS011;5595;50.186;8.468;2023-09-19T07:12:10;4.00;;;1.27;;
11082;SDS011;5595;50.186;8.468;2023-09-19T07:14:38;3.38;;;1.55;;
11082;SDS011;5595;50.186;8.468;2023-09-19T07:17:05;2.05;;;0.80;;
11082;SDS011;5595;50.186;8.468;2023-09-19T07:19:32;2.03;;;0.90;;
11082;SDS011;5595;50.186;8.468;2023-09-19T07:21:58;1.98;;;0.80;;
11082;SDS011;5595;50.186;8.468;2023-09-19T07:24:27;1.73;;;0.80;;
11082;SDS011;5595;50.186;8.468;2023-09-19T07:26:57;1.58;;;0.68;;
11082;SDS011;5595;50.186;8.468;2023-09-19T07:29:25;3.55;;;1.02;;
11082;SDS011;5595;50.186;8.468;2023-09-19T07:31:52;2.47;;;1.27;;
11082;SDS011;5595;50.186;8.468;2023-09-19T07:34:19;1.65;;;0.88;;
11082;SDS011;5595;50.186;8.468;2023-09-19T07:36:48;4.22;;;0.90;;
11082;SDS011;5595;50.186;8.468;2023-09-19T07:39:14;2.45;;;0.70;;
11082;SDS011;5595;50.186;8.468;2023-09-19T07:41:41;1.38;;;0.80;;
11082;SDS011;5595;50.186;8.468;2023-09-19T07:44:08;3.70;;;0.60;;
11082;SDS011;5595;50.186;8.468;2023-09-19T07:46:36;3.13;;;0.60;;
11082;SDS011;5595;50.186;8.468;2023-09-19T07:49:03;1.00;;;0.50;;
11082;SDS011;5595;50.186;8.468;2023-09-19T07:51:30;2.75;;;0.80;;
11082;SDS011;5595;50.186;8.468;2023-09-19T07:53:58;2.90;;;0.70;;
11082;SDS011;5595;50.186;8.468;2023-09-19T07:56:24;3.13;;;0.77;;
11082;SDS011;5595;50.186;8.468;2023-09-19T07:58:52;2.30;;;0.80;;
11082;SDS011;5595;50.186;8.468;2023-09-19T08:01:19;2.90;;;1.05;;
11082;SDS011;5595;50.186;8.468;2023-09-19T08:03:50;2.90;;;0.82;;
11082;SDS011;5595;50.186;8.468;2023-09-19T08:06:17;4.10;;;0.70;;
11082;SDS011;5595;50.186;8.468;2023-09-19T08:08:44;2.17;;;1.00;;
11082;SDS011;5595;50.186;8.468;2023-09-19T08:11:10;2.85;;;0.80;;
11082;SDS011;5595;50.186;8.468;2023-09-19T08:13:37;3.70;;;0.80;;
11082;SDS011;5595;50.186;8.468;2023-09-19T08:16:08;3.90;;;0.70;;
11082;SDS011;5595;50.186;8.468;2023-09-19T08:18:35;5.25;;;0.70;;
11082;SDS011;5595;50.186;8.468;2023-09-19T08:21:04;3.97;;;0.77;;
11082;SDS011;5595;50.186;8.468;2023-09-19T08:23:33;2.15;;;0.80;;
11082;SDS011;5595;50.186;8.468;2023-09-19T08:26:00;4.20;;;0.82;;
11082;SDS011;5595;50.186;8.468;2023-09-19T08:28:31;5.05;;;0.73;;
11082;SDS011;5595;50.186;8.468;2023-09-19T08:31:01;4.65;;;0.88;;
11082;SDS011;5595;50.186;8.468;2023-09-19T08:33:29;1.95;;;0.80;;
11082;SDS011;5595;50.186;8.468;2023-09-19T08:35:57;0.52;;;0.40;;
11082;SDS011;5595;50.186;8.468;2023-09-19T08:38:25;4.22;;;0.60;;
11082;SDS011;5595;50.186;8.468;2023-09-19T08:40:56;2.00;;;0.60;;
11082;SDS011;5595;50.186;8.468;2023-09-19T08:43:24;2.15;;;0.63;;
11082;SDS011;5595;50.186;8.468;2023-09-19T08:45:55;1.98;;;0.70;;
11082;SDS011;5595;50.186;8.468;2023-09-19T08:48:28;2.10;;;0.73;;
11082;SDS011;5595;50.186;8.468;2023-09-19T08:50:59;1.67;;;0.50;;
11082;SDS011;5595;50.186;8.468;2023-09-19T08:53:34;4.53;;;0.50;;
11082;SDS011;5595;50.186;8.468;2023-09-19T08:56:06;0.73;;;0.50;;
11082;SDS011;5595;50.186;8.468;2023-09-19T08:58:38;2.45;;;0.75;;
11082;SDS011;5595;50.186;8.468;2023-09-19T09:01:11;1.98;;;0.60;;
11082;SDS011;5595;50.186;8.468;2023-09-19T09:03:40;0.98;;;0.40;;
11082;SDS011;5595;50.186;8.468;2023-09-19T09:06:11;3.08;;;0.80;;
11082;SDS011;5595;50.186;8.468;2023-09-19T09:08:42;0.85;;;0.40;;
11082;SDS011;5595;50.186;8.468;2023-09-19T09:11:09;2.45;;;0.63;;
11082;SDS011;5595;50.186;8.468;2023-09-19T09:13:37;3.42;;;1.02;;
11082;SDS011;5595;50.186;8.468;2023-09-19T09:16:06;4.65;;;1.08;;
11082;SDS011;5595;50.186;8.468;2023-09-19T09:18:33;0.98;;;0.50;;
11082;SDS011;5595;50.186;8.468;2023-09-19T09:21:00;4.22;;;0.50;;
11082;SDS011;5595;50.186;8.468;2023-09-19T09:23:27;2.92;;;0.73;;
11082;SDS011;5595;50.186;8.468;2023-09-19T09:25:56;6.53;;;0.65;;
11082;SDS011;5595;50.186;8.468;2023-09-19T09:28:27;1.92;;;0.70;;
11082;SDS011;5595;50.186;8.468;2023-09-19T09:30:56;1.98;;;0.55;;
11082;SDS011;5595;50.186;8.468;2023-09-19T09:33:23;2.40;;;0.50;;
11082;SDS011;5595;50.186;8.468;2023-09-19T09:35:51;2.08;;;0.70;;
11082;SDS011;5595;50.186;8.468;2023-09-19T09:38:21;4.15;;;0.60;;
11082;SDS011;5595;50.186;8.468;2023-09-19T09:40:52;4.50;;;0.80;;
11082;SDS011;5595;50.186;8.468;2023-09-19T09:43:26;1.63;;;0.57;;
11082;SDS011;5595;50.186;8.468;2023-09-19T09:46:07;4.07;;;0.88;;
11082;SDS011;5595;50.186;8.468;2023-09-19T09:48:57;3.58;;;0.70;;
11082;SDS011;5595;50.186;8.468;2023-09-19T09:51:41;3.08;;;0.52;;
11082;SDS011;5595;50.186;8.468;2023-09-19T09:54:12;2.92;;;0.80;;
11082;SDS011;5595;50.186;8.468;2023-09-19T09:56:53;2.88;;;0.80;;
11082;SDS011;5595;50.186;8.468;2023-09-19T10:02:12;5.03;;;0.63;;
11082;SDS011;5595;50.186;8.468;2023-09-19T10:04:49;2.28;;;1.02;;
11082;SDS011;5595;50.186;8.468;2023-09-19T10:07:27;3.25;;;0.75;;
11082;SDS011;5595;50.186;8.468;2023-09-19T10:10:03;3.60;;;0.73;;
11082;SDS011;5595;50.186;8.468;2023-09-19T10:12:42;3.42;;;0.63;;
11082;SDS011;5595;50.186;8.468;2023-09-19T10:15:14;4.30;;;0.70;;
11082;SDS011;5595;50.186;8.468;2023-09-19T10:17:43;3.25;;;0.60;;
11082;SDS011;5595;50.186;8.468;2023-09-19T10:20:12;3.85;;;0.70;;
11082;SDS011;5595;50.186;8.468;2023-09-19T10:23:00;3.85;;;0.65;;
11082;SDS011;5595;50.186;8.468;2023-09-19T10:25:34;2.28;;;0.80;;
11082;SDS011;5595;50.186;8.468;2023-09-19T10:28:05;2.65;;;0.60;;
11082;SDS011;5595;50.186;8.468;2023-09-19T10:30:38;3.25;;;0.75;;
11082;SDS011;5595;50.186;8.468;2023-09-19T10:33:10;3.40;;;0.80;;
11082;SDS011;5595;50.186;8.468;2023-09-19T10:35:38;4.05;;;0.88;;
11082;SDS011;5595;50.186;8.468;2023-09-19T10:38:09;3.60;;;0.90;;
11082;SDS011;5595;50.186;8.468;2023-09-19T10:40:37;3.03;;;0.80;;
11082;SDS011;5595;50.186;8.468;2023-09-19T10:43:08;4.22;;;1.20;;
11082;SDS011;5595;50.186;8.468;2023-09-19T10:45:39;3.88;;;0.85;;
11082;SDS011;5595;50.186;8.468;2023-09-19T10:48:09;3.00;;;0.95;;
11082;SDS011;5595;50.186;8.468;2023-09-19T10:50:41;2.83;;;0.90;;
11082;SDS011;5595;50.186;8.468;2023-09-19T10:53:12;4.10;;;0.70;;
11082;SDS011;5595;50.186;8.468;2023-09-19T10:55:40;3.92;;;1.00;;
11082;SDS011;5595;50.186;8.468;2023-09-19T10:58:15;4.28;;;0.85;;
11082;SDS011;5595;50.186;8.468;2023-09-19T11:00:55;4.95;;;0.90;;
11082;SDS011;5595;50.186;8.468;2023-09-19T11:03:27;4.50;;;1.00;;
11082;SDS011;5595;50.186;8.468;2023-09-19T11:06:02;2.60;;;0.80;;
11082;SDS011;5595;50.186;8.468;2023-09-19T11:08:30;3.03;;;0.65;;
11082;SDS011;5595;50.186;8.468;2023-09-19T11:10:57;2.47;;;0.90;;
11082;SDS011;5595;50.186;8.468;2023-09-19T11:13:24;3.10;;;0.60;;
11082;SDS011;5595;50.186;8.468;2023-09-19T11:18:55;4.43;;;1.05;;
11082;SDS011;5595;50.186;8.468;2023-09-19T11:21:39;2.97;;;0.88;;
11082;SDS011;5595;50.186;8.468;2023-09-19T11:27:14;4.72;;;0.82;;
11082;SDS011;5595;50.186;8.468;2023-09-19T11:29:42;3.85;;;0.60;;
11082;SDS011;5595;50.186;8.468;2023-09-19T11:32:11;3.28;;;0.93;;
11082;SDS011;5595;50.186;8.468;2023-09-19T11:34:45;3.03;;;0.60;;
11082;SDS011;5595;50.186;8.468;2023-09-19T11:40:44;3.80;;;1.02;;
11082;SDS011;5595;50.186;8.468;2023-09-19T11:43:32;5.78;;;0.88;;
11082;SDS011;5595;50.186;8.468;2023-09-19T11:46:08;2.50;;;0.80;;
11082;SDS011;5595;50.186;8.468;2023-09-19T11:48:37;2.60;;;0.70;;
11082;SDS011;5595;50.186;8.468;2023-09-19T11:51:11;5.90;;;0.90;;
11082;SDS011;5595;50.186;8.468;2023-09-19T11:53:44;4.45;;;0.68;;
11082;SDS011;5595;50.186;8.468;2023-09-19T11:56:15;7.18;;;0.98;;
11082;SDS011;5595;50.186;8.468;2023-09-19T11:58:43;4.20;;;0.85;;
11082;SDS011;5595;50.186;8.468;2023-09-19T12:01:12;2.60;;;0.70;;
11082;SDS011;5595;50.186;8.468;2023-09-19T12:03:47;4.05;;;0.70;;
11082;SDS011;5595;50.186;8.468;2023-09-19T12:06:19;2.97;;;0.68;;
11082;SDS011;5595;50.186;8.468;2023-09-19T12:08:47;2.33;;;0.65;;
11082;SDS011;5595;50.186;8.468;2023-09-19T12:11:15;2.70;;;0.88;;
11082;SDS011;5595;50.186;8.468;2023-09-19T12:13:43;1.85;;;0.50;;
11082;SDS011;5595;50.186;8.468;2023-09-19T12:16:12;3.70;;;0.57;;
11082;SDS011;5595;50.186;8.468;2023-09-19T12:18:41;2.53;;;0.60;;
11082;SDS011;5595;50.186;8.468;2023-09-19T12:21:22;2.78;;;0.93;;
11082;SDS011;5595;50.186;8.468;2023-09-19T12:23:56;2.33;;;0.65;;
11082;SDS011;5595;50.186;8.468;2023-09-19T12:26:26;3.70;;;0.68;;
11082;SDS011;5595;50.186;8.468;2023-09-19T12:28:54;2.67;;;0.75;;
11082;SDS011;5595;50.186;8.468;2023-09-19T12:31:21;3.90;;;0.52;;
11082;SDS011;5595;50.186;8.468;2023-09-19T12:33:52;2.83;;;0.80;;
11082;SDS011;5595;50.186;8.468;2023-09-19T12:36:21;2.63;;;0.80;;
11082;SDS011;5595;50.186;8.468;2023-09-19T12:38:56;2.85;;;0.70;;
11082;SDS011;5595;50.186;8.468;2023-09-19T12:41:24;2.30;;;0.52;;
11082;SDS011;5595;50.186;8.468;2023-09-19T12:43:51;4.40;;;0.75;;
11082;SDS011;5595;50.186;8.468;2023-09-19T12:46:19;1.90;;;0.63;;
11082;SDS011;5595;50.186;8.468;2023-09-19T12:48:50;2.20;;;0.70;;
11082;SDS011;5595;50.186;8.468;2023-09-19T12:51:45;2.25;;;0.70;;
11082;SDS011;5595;50.186;8.468;2023-09-19T12:54:12;1.77;;;0.60;;
11082;SDS011;5595;50.186;8.468;2023-09-19T12:56:41;2.05;;;0.55;;
11082;SDS011;5595;50.186;8.468;2023-09-19T12:59:11;3.25;;;0.90;;
11082;SDS011;5595;50.186;8.468;2023-09-19T13:01:39;2.92;;;0.70;;
11082;SDS011;5595;50.186;8.468;2023-09-19T13:04:14;4.05;;;0.77;;
11082;SDS011;5595;50.186;8.468;2023-09-19T13:06:47;1.65;;;0.52;;
11082;SDS011;5595;50.186;8.468;2023-09-19T13:09:14;1.42;;;0.60;;
11082;SDS011;5595;50.186;8.468;2023-09-19T13:11:42;1.80;;;0.60;;
11082;SDS011;5595;50.186;8.468;2023-09-19T13:14:14;3.17;;;0.50;;
11082;SDS011;5595;50.186;8.468;2023-09-19T13:16:53;2.00;;;0.60;;
11082;SDS011;5595;50.186;8.468;2023-09-19T13:19:34;2.08;;;0.77;;
11082;SDS011;5595;50.186;8.468;2023-09-19T13:22:20;1.88;;;0.50;;
11082;SDS011;5595;50.186;8.468;2023-09-19T13:25:04;2.20;;;0.35;;
11082;SDS011;5595;50.186;8.468;2023-09-19T13:27:33;3.58;;;0.63;;
11082;SDS011;5595;50.186;8.468;2023-09-19T13:29:59;4.35;;;0.70;;
11082;SDS011;5595;50.186;8.468;2023-09-19T13:32:26;6.35;;;0.98;;
11082;SDS011;5595;50.186;8.468;2023-09-19T13:34:53;4.53;;;0.90;;
11082;SDS011;5595;50.186;8.468;2023-09-19T13:37:21;3.20;;;0.68;;
11082;SDS011;5595;50.186;8.468;2023-09-19T13:39:48;3.00;;;0.63;;
11082;SDS011;5595;50.186;8.468;2023-09-19T13:42:15;1.90;;;0.47;;
11082;SDS011;5595;50.186;8.468;2023-09-19T13:44:46;2.33;;;0.70;;
11082;SDS011;5595;50.186;8.468;2023-09-19T13:47:13;2.78;;;0.60;;
11082;SDS011;5595;50.186;8.468;2023-09-19T13:49:41;2.40;;;0.68;;
11082;SDS011;5595;50.186;8.468;2023-09-19T13:52:14;4.20;;;0.93;;
11082;SDS011;5595;50.186;8.468;2023-09-19T13:54:48;2.67;;;0.43;;
11082;SDS011;5595;50.186;8.468;2023-09-19T13:57:16;1.63;;;0.47;;
11082;SDS011;5595;50.186;8.468;2023-09-19T13:59:43;2.42;;;0.50;;
11082;SDS011;5595;50.186;8.468;2023-09-19T14:02:13;5.13;;;0.63;;
11082;SDS011;5595;50.186;8.468;2023-09-19T14:04:39;2.53;;;0.88;;
11082;SDS011;5595;50.186;8.468;2023-09-19T14:07:06;2.88;;;0.60;;
11082;SDS011;5595;50.186;8.468;2023-09-19T14:09:33;1.73;;;0.50;;
11082;SDS011;5595;50.186;8.468;2023-09-19T14:12:02;1.85;;;0.63;;
11082;SDS011;5595;50.186;8.468;2023-09-19T14:14:29;1.60;;;0.40;;
11082;SDS011;5595;50.186;8.468;2023-09-19T14:16:56;2.88;;;0.40;;
11082;SDS011;5595;50.186;8.468;2023-09-19T14:19:25;3.08;;;0.60;;
11082;SDS011;5595;50.186;8.468;2023-09-19T14:21:52;1.38;;;0.50;;
11082;SDS011;5595;50.186;8.468;2023-09-19T14:24:20;6.63;;;0.63;;
11082;SDS011;5595;50.186;8.468;2023-09-19T14:26:47;3.10;;;1.08;;
11082;SDS011;5595;50.186;8.468;2023-09-19T14:29:16;1.40;;;0.60;;
11082;SDS011;5595;50.186;8.468;2023-09-19T14:31:44;2.25;;;0.60;;
11082;SDS011;5595;50.186;8.468;2023-09-19T14:34:11;2.55;;;0.50;;
11082;SDS011;5595;50.186;8.468;2023-09-19T14:36:39;3.03;;;0.50;;
11082;SDS011;5595;50.186;8.468;2023-09-19T14:39:06;3.20;;;0.57;;
11082;SDS011;5595;50.186;8.468;2023-09-19T14:41:33;1.65;;;0.45;;
11082;SDS011;5595;50.186;8.468;2023-09-19T14:44:01;1.58;;;0.40;;
11082;SDS011;5595;50.186;8.468;2023-09-19T14:46:35;3.70;;;0.63;;
11082;SDS011;5595;50.186;8.468;2023-09-19T14:49:02;3.88;;;0.70;;
11082;SDS011;5595;50.186;8.468;2023-09-19T14:51:29;3.50;;;0.50;;
11082;SDS011;5595;50.186;8.468;2023-09-19T14:53:56;2.13;;;0.50;;
11082;SDS011;5595;50.186;8.468;2023-09-19T14:56:23;3.80;;;0.43;;
11082;SDS011;5595;50.186;8.468;2023-09-19T14:58:50;0.95;;;0.40;;
11082;SDS011;5595;50.186;8.468;2023-09-19T15:01:17;2.67;;;0.70;;
11082;SDS011;5595;50.186;8.468;2023-09-19T15:03:46;2.33;;;0.50;;
11082;SDS011;5595;50.186;8.468;2023-09-19T15:06:14;4.28;;;0.50;;
11082;SDS011;5595;50.186;8.468;2023-09-19T15:08:42;1.35;;;0.40;;
11082;SDS011;5595;50.186;8.468;2023-09-19T15:11:12;2.13;;;0.55;;
11082;SDS011;5595;50.186;8.468;2023-09-19T15:13:41;1.95;;;0.50;;
11082;SDS011;5595;50.186;8.468;2023-09-19T15:16:08;2.58;;;0.40;;
11082;SDS011;5595;50.186;8.468;2023-09-19T15:18:36;1.58;;;0.40;;
11082;SDS011;5595;50.186;8.468;2023-09-19T15:21:05;2.88;;;0.43;;
11082;SDS011;5595;50.186;8.468;2023-09-19T15:23:33;1.88;;;0.40;;
11082;SDS011;5595;50.186;8.468;2023-09-19T15:26:02;1.38;;;0.30;;
11082;SDS011;5595;50.186;8.468;2023-09-19T15:28:29;3.67;;;0.55;;
11082;SDS011;5595;50.186;8.468;2023-09-19T15:30:57;2.50;;;0.40;;
11082;SDS011;5595;50.186;8.468;2023-09-19T15:33:24;0.90;;;0.43;;